الصفحة الرئيسية
METAR-TAF:

METAR-TAF

مطار :

قرطبة، الأرجنتين, الأرجنتين

دائرة عرض: 31-19S, خط طول: 064-13W, ارتفاع: 484 متر

مراقبة الطقس الحالي

تاريخ ووقت الإصدار 51 دقيقة قبل الساعة 12:00UTC
ريح 4 عقدة من الغرب/الجنوب الغربي
درجة الحرارة 24°درجة مئوية
الرطوبة 54%
ضغط 1014 hPa
الرؤية 10 كم أو أكثر
الغيوم لا تقل 1500 م ولا وجود لمزنة ركامية السحاب الأسود

METAR: SACO 201200Z 25004KT CAVOK 24/14 Q1014

زمن: 09:51 (12:51 UTC)

توقعات

تاريخ ووقت الإصدار 1ساعة و 51 دقيقة قبل الساعة 11:00UTC
التوقعات صالحة من20 الساعة 12 UTC إلى 21 الساعة 12 UTC
ريح 5 عقدة من الغرب/الشمال الغربي
الرؤية 10 كم أو أكثر
غيوم متفرقة على ارتفاع 3000 قدم
أصبح
من 20 الساعة 14 UTC إلى 20 الساعة 17 UTC
ريح 10 عقدة من الشمال الشرقي
الرؤية 10 كم أو أكثر
غيوم متفرقة على ارتفاع 3000 قدم
غيوم قليلة على ارتفاع 4000 قدم, مزنة ركامية.

TAF: SACO 201100Z 2012/2112 29005KT 9999 SCT030 TX32/2018Z TN16/2110Z BECMG 2014/2017 05010KT 9999 SCT030 FEW040CB

أرصاد الطقس والتوقعات من أكثر من 4000 مطار (تقارير الطقس للمطار METAR والتنبؤ بالطقس بالمطارTAF).

المحطات المتاحة هي النقط الصفراء والحمراء على الخريطة.

حرك المؤشر فوق النقطة لمعرفة اسم المحطة.

ثم انقر لمعرفة أرصاد وتوقعات الطقس.

لتغيير الخارطة: اضغط على الأزرار الخضراء مع رمز الصليب الأسود للتكبير. على الزر الأخضر مع شرطة للتصغير، أو على الأسهم الخضراء للخرائط المجاورة.


METAR-TAF: